ADDS METAR Data INFO
IDs: Format: Raw Decoded Include TAF

Data at: 1336 UTC 19 Jul 2018

KHGR 191318Z VRB03KT 10SM CLR 23/13 A3013 RMK AO2 T02330133
KHGR 191253Z VRB03KT 10SM CLR 23/14 A3013 RMK AO2 SLP206 T02280139
KHGR 191153Z 01003KT 10SM CLR 21/12 A3012 RMK AO2 SLP202 T02110117 10211 20172 51013
KHGR 191053Z 34004KT 10SM FEW070 19/13 A3011 RMK AO2 SLP200 T01890133
KHGR 190953Z AUTO 35008KT 10SM BKN070 18/14 A3009 RMK AO2 SLP194 T01780144
KHGR 190853Z AUTO 03005KT 10SM BKN070 20/14 A3008 RMK AO2 SLP190 T02000139 53010
KHGR 190753Z AUTO 00000KT 10SM BKN070 19/15 A3007 RMK AO2 SLP186 T01940150
KHGR 190653Z AUTO 00000KT 10SM BKN070 19/15 A3006 RMK AO2 SLP183 T01940150
KHGR 190553Z AUTO 00000KT 10SM FEW070 21/14 A3005 RMK AO2 SLP180 T02110144 10272 20211 53011
KHGR 190453Z AUTO 00000KT 10SM CLR 22/14 A3004 RMK AO2 SLP175 T02170144 402940189
KHGR 190353Z AUTO 00000KT 10SM CLR 23/14 A3003 RMK AO2 SLP171 T02280144
KHGR 190253Z AUTO 10003KT 10SM CLR 23/14 A3002 RMK AO2 SLP169 T02280144 52013
KHGR 190153Z 29004KT 10SM CLR 24/15 A3001 RMK AO2 SLP166 T02390150
KHGR 190053Z 00000KT 10SM CLR 26/14 A2999 RMK AO2 SLP159 T02560139
KHGR 182353Z 33005KT 10SM CLR 27/13 A2998 RMK AO2 SLP157 T02720133 10294 20272 53003
KHGR 182253Z 31008KT 10SM FEW065 28/13 A2998 RMK AO2 SLP155 T02830133
KHGR 182153Z 33008KT 10SM CLR 29/13 A2997 RMK AO2 SLP152 T02890133
KHGR 182053Z 35008KT 10SM SCT065 29/14 A2997 RMK AO2 SLP153 T02890139 58007
KHGR 181953Z 30007KT 10SM SCT070 28/13 A2999 RMK AO2 SLP158 T02830133
KHGR 181858Z 34007KT 10SM BKN060 28/13 A3000
KHGR 181853Z AUTO 10SM BKN060 28/13 A2999 RMK AO2 SLP160 T02830133
KHGR 181753Z 30008KT 10SM SCT060 28/13 A3000 RMK AO2 SLP161 T02780133 10283 20206 58007
KHGR 181653Z VRB06KT 10SM SCT055 28/14 A3000 RMK AO2 SLP164 T02780144
KHGR 181553Z 30009KT 10SM SCT030 26/15 A3001 RMK AO2 SLP167 T02610150
KHGR 181453Z 30006KT 10SM FEW015 26/14 A3002 RMK AO2 SLP169 T02560144 51006
KHGR 181353Z 31006KT 10SM CLR 24/15 A3001 RMK AO2 SLP168 T02390150
KHGR 181253Z VRB03KT 10SM CLR 23/16 A3001 RMK AO2 SLP167 T02280156
KHGR 181153Z 31006KT 10SM CLR 21/16 A3000 RMK AO2 SLP162 70103 T02060156 10217 20189 53016
KHGR 181053Z AUTO 00000KT 10SM CLR 19/14 A2998 RMK AO2 SLP156 T01940139
KHGR 180953Z AUTO 34004KT 10SM CLR 19/14 A2996 RMK AO2 SLP149 T01940139
KHGR 180853Z AUTO 35004KT 10SM CLR 19/14 A2995 RMK AO2 SLP145 T01940139 51006
KHGR 180753Z AUTO 33008KT 10SM CLR 21/14 A2995 RMK AO2 SLP145 T02060144
KHGR 180653Z AUTO 30005KT 10SM CLR 19/15 A2994 RMK AO2 SLP143 T01940150
KHGR 180553Z AUTO 32011KT 10SM CLR 22/15 A2993 RMK AO2 SLP139 60060 T02170150 10261 20200 53003
KHGR 180453Z AUTO 32004KT 10SM CLR 21/17 A2993 RMK AO2 SLP138 T02060172 403060200
KHGR 180353Z AUTO 32005KT 10SM CLR 21/18 A2991 RMK AO2 SLP131 T02110183
KHGR 180253Z AUTO 33005KT 10SM CLR 22/19 A2992 RMK AO2 SLP135 60060 T02220194 51019
KHGR 180153Z 00000KT 10SM CLR 22/20 A2992 RMK AO2 SLP134 T02170200